createdAt,value
2019-05-03T00:00:03.952Z,3.30
2019-05-03T00:01:03.912Z,3.50
2019-05-03T00:02:03.871Z,2.80
2019-05-03T00:03:03.876Z,3.80
2019-05-03T00:04:03.866Z,4.70
2019-05-03T00:05:03.887Z,3.50
2019-05-03T00:06:03.825Z,4.00
2019-05-03T00:07:03.833Z,4.40
2019-05-03T00:08:03.811Z,5.10
2019-05-03T00:09:03.791Z,6.20
2019-05-03T00:10:03.809Z,5.80
2019-05-03T00:11:03.777Z,3.80
2019-05-03T00:12:03.786Z,4.30
2019-05-03T00:13:03.753Z,5.00
2019-05-03T00:14:03.744Z,3.30
2019-05-03T00:15:03.752Z,4.10
2019-05-03T00:16:03.711Z,7.70
2019-05-03T00:17:03.753Z,4.90
2019-05-03T00:18:03.722Z,4.40
2019-05-03T00:19:03.707Z,4.80
2019-05-03T00:20:03.667Z,3.70
2019-05-03T00:21:03.668Z,5.50
2019-05-03T00:22:03.694Z,6.00
2019-05-03T00:23:03.681Z,7.20
2019-05-03T00:24:03.631Z,5.60
2019-05-03T00:25:08.121Z,6.50
2019-05-03T00:26:03.620Z,5.00
2019-05-03T00:27:03.616Z,3.30
2019-05-03T00:28:03.620Z,4.60
2019-05-03T00:29:03.578Z,5.80
2019-05-03T00:30:03.566Z,4.80
2019-05-03T00:31:03.545Z,4.00
2019-05-03T00:32:03.573Z,6.20
2019-05-03T00:33:03.552Z,3.50
2019-05-03T00:34:03.508Z,5.10
2019-05-03T00:35:03.500Z,3.50
2019-05-03T00:36:03.501Z,5.10
2019-05-03T00:37:03.476Z,2.60
2019-05-03T00:38:03.486Z,5.50
2019-05-03T00:39:03.476Z,5.50
2019-05-03T00:40:03.447Z,5.10
2019-05-03T00:41:03.457Z,2.80
2019-05-03T00:42:03.429Z,3.10
2019-05-03T00:43:03.419Z,5.80
2019-05-03T00:44:03.419Z,5.20
2019-05-03T00:45:03.397Z,7.00
2019-05-03T00:46:03.381Z,4.30
2019-05-03T00:47:03.379Z,4.10
2019-05-03T00:48:03.375Z,5.70
2019-05-03T00:49:03.779Z,7.00
2019-05-03T00:50:03.361Z,4.80
2019-05-03T00:51:03.319Z,7.00
2019-05-03T00:52:03.307Z,5.90
2019-05-03T00:53:03.326Z,6.00
2019-05-03T00:54:03.296Z,6.10
2019-05-03T00:55:15.239Z,3.70
2019-05-03T00:56:04.267Z,4.00
2019-05-03T00:57:03.259Z,2.10
2019-05-03T00:58:03.266Z,4.40
2019-05-03T00:59:03.280Z,4.70
2019-05-03T01:00:03.227Z,5.60
2019-05-03T01:01:03.219Z,3.40
2019-05-03T01:02:03.207Z,6.10
2019-05-03T01:03:03.215Z,5.20
2019-05-03T01:04:03.180Z,4.20
2019-05-03T01:05:03.166Z,2.30
2019-05-03T01:06:03.165Z,4.70
2019-05-03T01:07:03.150Z,1.80
2019-05-03T01:08:03.153Z,4.00
2019-05-03T01:09:03.149Z,6.70
2019-05-03T01:10:03.117Z,4.50
2019-05-03T01:11:03.114Z,5.50
2019-05-03T01:12:03.097Z,4.90
2019-05-03T01:13:03.090Z,5.20
2019-05-03T01:14:03.082Z,5.50
2019-05-03T01:15:03.057Z,2.80
2019-05-03T01:16:03.085Z,4.30
2019-05-03T01:17:03.040Z,7.60
2019-05-03T01:18:03.031Z,4.40
2019-05-03T01:19:03.045Z,4.00
2019-05-03T01:20:03.028Z,6.00
2019-05-03T01:21:03.008Z,3.50
2019-05-03T01:22:02.981Z,5.30
2019-05-03T01:23:02.971Z,5.30
2019-05-03T01:24:02.977Z,4.50
2019-05-03T01:25:03.122Z,4.80
2019-05-03T01:26:02.949Z,5.80
2019-05-03T01:27:02.928Z,4.40
2019-05-03T01:28:02.919Z,4.10
2019-05-03T01:29:02.919Z,4.10
2019-05-03T01:30:03.177Z,5.90
2019-05-03T01:31:02.876Z,3.50
2019-05-03T01:32:02.865Z,4.70
2019-05-03T01:33:02.969Z,2.90
2019-05-03T01:34:02.874Z,7.10
2019-05-03T01:35:03.389Z,3.00
2019-05-03T01:36:02.931Z,3.70
2019-05-03T01:37:02.814Z,5.30
2019-05-03T01:38:02.807Z,3.50
2019-05-03T01:39:02.836Z,6.10
2019-05-03T01:40:02.807Z,6.30
2019-05-03T01:41:02.769Z,6.10
2019-05-03T01:42:02.827Z,4.80
2019-05-03T01:43:02.763Z,7.20
2019-05-03T01:44:02.750Z,6.90
2019-05-03T01:45:02.735Z,4.20
2019-05-03T01:46:02.901Z,6.50
2019-05-03T01:47:02.705Z,5.10
2019-05-03T01:48:02.686Z,6.20
2019-05-03T01:49:02.735Z,6.80
2019-05-03T01:50:02.928Z,7.20
2019-05-03T01:51:02.900Z,5.40
2019-05-03T01:52:02.649Z,5.10
2019-05-03T01:53:02.641Z,5.60
2019-05-03T01:54:02.643Z,3.50
2019-05-03T01:55:03.258Z,3.90
2019-05-03T01:56:03.638Z,4.30
2019-05-03T01:57:02.633Z,7.20
2019-05-03T01:58:02.589Z,7.80
2019-05-03T01:59:02.583Z,4.90
2019-05-03T02:00:02.902Z,5.60
2019-05-03T02:01:02.896Z,10.40
2019-05-03T02:02:02.534Z,4.50
2019-05-03T02:03:02.540Z,4.20
2019-05-03T02:04:02.969Z,7.50
2019-05-03T02:05:02.635Z,8.50
2019-05-03T02:06:02.511Z,6.00
2019-05-03T02:07:02.486Z,3.60
2019-05-03T02:08:02.485Z,3.90
2019-05-03T02:09:02.459Z,5.80
2019-05-03T02:10:02.852Z,5.70
2019-05-03T02:11:02.494Z,7.80
2019-05-03T02:12:02.452Z,8.20
2019-05-03T02:13:02.423Z,3.70
2019-05-03T02:14:02.455Z,4.10
2019-05-03T02:15:02.579Z,6.10
2019-05-03T02:16:02.500Z,6.50
2019-05-03T02:17:02.370Z,4.60
2019-05-03T02:18:02.762Z,5.60
2019-05-03T02:19:02.515Z,4.90
2019-05-03T02:20:02.412Z,5.80
2019-05-03T02:21:02.325Z,7.50
2019-05-03T02:22:02.920Z,8.40
2019-05-03T02:23:02.878Z,6.60
2019-05-03T02:24:02.677Z,5.40
2019-05-03T02:25:02.304Z,5.30
2019-05-03T02:26:03.090Z,5.90
2019-05-03T02:27:02.340Z,7.40
2019-05-03T02:28:02.254Z,6.60
2019-05-03T02:29:02.250Z,6.80
2019-05-03T02:30:03.112Z,6.30
2019-05-03T02:31:03.507Z,9.90
2019-05-03T02:32:03.310Z,5.80
2019-05-03T02:33:04.089Z,4.90
2019-05-03T02:34:03.601Z,9.00
2019-05-03T02:35:02.784Z,8.30
2019-05-03T02:36:03.596Z,9.00
2019-05-03T02:37:02.955Z,6.20
2019-05-03T02:38:03.541Z,6.30
2019-05-03T02:39:02.828Z,8.70
2019-05-03T02:40:04.187Z,7.60
2019-05-03T02:41:02.941Z,7.50
2019-05-03T02:42:07.905Z,7.90
2019-05-03T02:43:05.435Z,8.40
2019-05-03T02:44:02.071Z,6.40
2019-05-03T02:45:02.081Z,7.10
2019-05-03T02:46:02.093Z,5.70
2019-05-03T02:47:02.046Z,8.30
2019-05-03T02:48:02.032Z,9.00
2019-05-03T02:49:02.022Z,8.90
2019-05-03T02:50:02.013Z,4.90
2019-05-03T02:51:02.013Z,5.50
2019-05-03T02:52:01.987Z,6.00
2019-05-03T02:53:01.978Z,6.90
2019-05-03T02:54:01.985Z,6.70
2019-05-03T02:55:01.952Z,9.90
2019-05-03T02:56:15.242Z,7.40
2019-05-03T02:57:02.930Z,7.60
2019-05-03T02:58:01.916Z,5.40
2019-05-03T02:59:01.921Z,5.30
2019-05-03T03:00:01.903Z,6.40
2019-05-03T03:01:01.993Z,7.10
2019-05-03T03:02:01.900Z,7.40
2019-05-03T03:03:01.859Z,8.60
2019-05-03T03:04:01.853Z,7.00
2019-05-03T03:05:01.861Z,8.30
2019-05-03T03:06:01.864Z,6.30
2019-05-03T03:07:01.826Z,9.70
2019-05-03T03:08:01.845Z,7.60
2019-05-03T03:09:01.797Z,6.70
2019-05-03T03:10:01.787Z,6.20
2019-05-03T03:11:01.803Z,7.10
2019-05-03T03:12:01.787Z,5.50
2019-05-03T03:13:01.757Z,10.40
2019-05-03T03:14:01.746Z,6.60
2019-05-03T03:15:01.768Z,6.30
2019-05-03T03:16:01.747Z,6.80
2019-05-03T03:17:01.728Z,7.00
2019-05-03T03:18:01.698Z,6.30
2019-05-03T03:19:01.694Z,9.40
2019-05-03T03:20:01.737Z,6.80
2019-05-03T03:21:01.694Z,10.30
2019-05-03T03:22:01.705Z,5.30
2019-05-03T03:23:01.672Z,6.90
2019-05-03T03:24:01.704Z,7.00
2019-05-03T03:25:01.634Z,9.30
2019-05-03T03:26:01.650Z,8.00
2019-05-03T03:27:01.610Z,5.20
2019-05-03T03:28:01.610Z,6.20
2019-05-03T03:29:01.576Z,9.50
2019-05-03T03:30:01.607Z,10.60
2019-05-03T03:31:01.548Z,7.20
2019-05-03T03:32:01.587Z,6.10
2019-05-03T03:33:01.541Z,10.20
2019-05-03T03:34:01.534Z,9.10
2019-05-03T03:35:03.879Z,6.30
2019-05-03T03:36:31.382Z,7.50
2019-05-03T03:37:06.451Z,4.60
2019-05-03T03:38:02.527Z,11.50
2019-05-03T03:39:01.468Z,5.80
2019-05-03T03:40:01.462Z,7.30
2019-05-03T03:41:01.471Z,9.40
2019-05-03T03:42:01.460Z,7.10
2019-05-03T03:43:01.438Z,8.60
2019-05-03T03:44:01.410Z,6.10
2019-05-03T03:45:01.455Z,10.70
2019-05-03T03:46:01.407Z,6.40
2019-05-03T03:47:01.412Z,7.50
2019-05-03T03:48:01.367Z,8.50
2019-05-03T03:49:01.360Z,9.50
2019-05-03T03:50:01.342Z,9.80
2019-05-03T03:51:01.403Z,7.80
2019-05-03T03:52:01.334Z,7.90
2019-05-03T03:53:01.393Z,10.70
2019-05-03T03:54:01.297Z,9.50
2019-05-03T03:55:01.280Z,6.50
2019-05-03T03:56:01.275Z,6.70
2019-05-03T03:57:05.040Z,7.10
2019-05-03T03:58:02.250Z,6.40
2019-05-03T03:59:01.243Z,6.50
2019-05-03T04:00:01.245Z,8.20
2019-05-03T04:01:01.231Z,7.10
2019-05-03T04:02:01.221Z,8.10
2019-05-03T04:03:01.203Z,10.80
2019-05-03T04:04:01.206Z,6.30
2019-05-03T04:05:01.177Z,7.70
2019-05-03T04:06:01.181Z,12.90
2019-05-03T04:07:01.668Z,6.70
2019-05-03T04:08:01.135Z,8.90
2019-05-03T04:09:01.123Z,7.10
2019-05-03T04:10:01.115Z,5.30
2019-05-03T04:11:01.116Z,8.40
2019-05-03T04:12:01.113Z,10.40
2019-05-03T04:13:01.088Z,10.70
2019-05-03T04:14:01.075Z,7.20
2019-05-03T04:15:01.093Z,9.10
2019-05-03T04:16:01.063Z,7.80
2019-05-03T04:17:01.061Z,7.30
2019-05-03T04:18:01.027Z,9.00
2019-05-03T04:19:01.075Z,7.30
2019-05-03T04:20:01.004Z,8.70
2019-05-03T04:21:00.999Z,7.20
2019-05-03T04:22:00.988Z,14.60
2019-05-03T04:23:01.002Z,7.30
2019-05-03T04:24:00.966Z,7.90
2019-05-03T04:25:00.945Z,9.10
2019-05-03T04:26:00.932Z,8.30
2019-05-03T04:27:13.710Z,8.00
2019-05-03T04:28:01.965Z,8.00
2019-05-03T04:29:00.904Z,11.70
2019-05-03T04:30:00.911Z,9.70
2019-05-03T04:31:00.875Z,12.50
2019-05-03T04:32:00.862Z,8.10
2019-05-03T04:33:00.881Z,8.80
2019-05-03T04:34:00.845Z,10.80
2019-05-03T04:35:00.854Z,8.90
2019-05-03T04:36:00.839Z,9.10
2019-05-03T04:37:00.812Z,9.30
2019-05-03T04:38:00.818Z,8.00
2019-05-03T04:39:00.805Z,10.70
2019-05-03T04:40:00.776Z,11.50
2019-05-03T04:41:00.767Z,7.60
2019-05-03T04:42:00.751Z,12.60
2019-05-03T04:43:00.766Z,10.40
2019-05-03T04:44:00.733Z,9.10
2019-05-03T04:45:00.743Z,8.70
2019-05-03T04:46:00.716Z,8.40
2019-05-03T04:47:00.719Z,11.30
2019-05-03T04:48:00.707Z,6.90
2019-05-03T04:49:00.675Z,12.30
2019-05-03T04:50:00.682Z,10.50
2019-05-03T04:51:00.650Z,7.80
2019-05-03T04:52:00.659Z,8.50
2019-05-03T04:53:00.652Z,9.40
2019-05-03T04:54:00.647Z,8.00
2019-05-03T04:55:00.621Z,10.00
2019-05-03T04:56:00.596Z,7.40
2019-05-03T04:57:00.585Z,7.20
2019-05-03T04:58:00.616Z,8.30
2019-05-03T04:59:00.560Z,9.50
2019-05-03T05:00:00.552Z,9.70
2019-05-03T05:01:00.539Z,9.30
2019-05-03T05:02:00.537Z,6.40
2019-05-03T05:03:00.550Z,12.20
2019-05-03T05:04:00.582Z,9.70
2019-05-03T05:05:00.487Z,12.20
2019-05-03T05:06:00.488Z,9.40
2019-05-03T05:07:00.495Z,10.60
2019-05-03T05:08:00.588Z,8.00
2019-05-03T05:09:00.712Z,11.20
2019-05-03T05:10:00.441Z,13.80
2019-05-03T05:11:00.448Z,13.30
2019-05-03T05:12:00.487Z,8.20
2019-05-03T05:13:00.518Z,8.50
2019-05-03T05:14:00.400Z,13.90
2019-05-03T05:15:00.380Z,9.80
2019-05-03T05:16:00.374Z,9.40
2019-05-03T05:17:00.379Z,9.00
2019-05-03T05:18:00.479Z,9.60
2019-05-03T05:19:00.426Z,9.60
2019-05-03T05:20:00.332Z,7.80
2019-05-03T05:21:00.346Z,13.80
2019-05-03T05:22:03.091Z,9.00
2019-05-03T05:23:01.294Z,10.00
2019-05-03T05:24:00.295Z,8.70
2019-05-03T05:25:00.269Z,11.50
2019-05-03T05:26:00.272Z,8.90
2019-05-03T05:27:00.248Z,11.60
2019-05-03T05:28:00.279Z,9.90
2019-05-03T05:29:00.252Z,13.30
2019-05-03T05:30:00.287Z,11.00
2019-05-03T05:31:00.353Z,13.50
2019-05-03T05:32:00.217Z,10.80
2019-05-03T05:33:00.183Z,12.80
2019-05-03T05:34:00.189Z,7.30
2019-05-03T05:35:00.181Z,8.50
2019-05-03T05:36:00.141Z,10.50
2019-05-03T05:37:00.135Z,10.90
2019-05-03T05:38:00.119Z,10.70
2019-05-03T05:39:00.130Z,8.00
2019-05-03T05:40:00.132Z,12.80
2019-05-03T05:41:00.100Z,4.90
2019-05-03T05:42:00.081Z,11.10
2019-05-03T05:43:00.059Z,15.40
2019-05-03T05:44:00.066Z,16.90
2019-05-03T05:45:00.067Z,15.80
2019-05-03T05:46:00.035Z,10.90
2019-05-03T05:47:00.035Z,11.70
2019-05-03T05:48:00.026Z,8.80
2019-05-03T05:49:00.040Z,11.70
2019-05-03T05:49:59.987Z,11.90
2019-05-03T05:50:59.998Z,11.10
2019-05-03T05:51:59.967Z,8.70
2019-05-03T05:52:59.956Z,9.10
2019-05-03T05:53:59.952Z,12.50
2019-05-03T05:54:59.958Z,12.60
2019-05-03T05:55:59.977Z,11.60
2019-05-03T05:56:59.904Z,10.60
2019-05-03T05:58:04.740Z,11.30
2019-05-03T05:59:00.914Z,12.40
2019-05-03T05:59:59.896Z,8.90
2019-05-03T06:00:59.891Z,10.10
2019-05-03T06:01:59.856Z,10.70
2019-05-03T06:02:59.851Z,12.40
2019-05-03T06:03:59.834Z,11.20
2019-05-03T06:04:59.867Z,12.90
2019-05-03T06:05:59.798Z,12.90
2019-05-03T06:06:59.815Z,13.20
2019-05-03T06:07:59.796Z,14.60
2019-05-03T06:08:59.801Z,14.40
2019-05-03T06:09:59.789Z,12.50
2019-05-03T06:10:59.744Z,12.40
2019-05-03T06:11:59.739Z,12.90
2019-05-03T06:12:59.724Z,12.60
2019-05-03T06:13:59.749Z,12.70
2019-05-03T06:14:59.728Z,14.40
2019-05-03T06:15:59.706Z,11.20
2019-05-03T06:16:59.682Z,10.80
2019-05-03T06:17:59.682Z,7.60
2019-05-03T06:18:59.664Z,11.70
2019-05-03T06:19:59.678Z,9.40
2019-05-03T06:20:59.644Z,12.70
2019-05-03T06:21:59.640Z,9.90
2019-05-03T06:22:59.620Z,10.50
2019-05-03T06:23:59.620Z,11.90
2019-05-03T06:24:59.637Z,17.80
2019-05-03T06:25:59.612Z,11.60
2019-05-03T06:26:59.583Z,12.30
2019-05-03T06:27:59.581Z,12.80
2019-05-03T06:28:59.553Z,10.10
2019-05-03T06:29:59.608Z,12.50
2019-05-03T06:30:59.530Z,12.40
2019-05-03T06:31:59.518Z,15.40
2019-05-03T06:32:59.562Z,15.10
2019-05-03T06:33:59.550Z,9.30
2019-05-03T06:34:59.499Z,10.00
2019-05-03T06:35:59.470Z,9.40
2019-05-03T06:36:59.470Z,11.10
2019-05-03T06:37:59.454Z,9.10
2019-05-03T06:38:59.496Z,12.20
2019-05-03T06:39:59.451Z,11.40
2019-05-03T06:40:59.460Z,14.00
2019-05-03T06:41:59.404Z,12.20
2019-05-03T06:43:08.660Z,10.40
2019-05-03T06:44:00.380Z,9.10
2019-05-03T06:45:07.532Z,12.00
2019-05-03T06:46:00.354Z,14.50
2019-05-03T06:47:01.190Z,12.00
2019-05-03T06:48:00.356Z,15.60
2019-05-03T06:49:01.043Z,15.10
2019-05-03T06:49:59.361Z,12.80
2019-05-03T06:51:00.284Z,11.30
2019-05-03T06:52:00.333Z,11.80
2019-05-03T06:52:59.813Z,8.50
2019-05-03T06:54:00.270Z,9.70
2019-05-03T06:55:00.395Z,10.30
2019-05-03T06:56:00.290Z,11.30
2019-05-03T06:57:00.101Z,7.80
2019-05-03T06:58:00.249Z,8.40
2019-05-03T06:58:59.235Z,10.10
2019-05-03T06:59:59.202Z,10.70
2019-05-03T07:00:59.216Z,9.70
2019-05-03T07:01:59.184Z,10.10
2019-05-03T07:02:59.219Z,13.80
2019-05-03T07:03:59.167Z,14.50
2019-05-03T07:04:59.157Z,9.30
2019-05-03T07:05:59.206Z,14.80
2019-05-03T07:06:59.136Z,10.80
2019-05-03T07:07:59.115Z,10.60
2019-05-03T07:08:59.278Z,14.50
2019-05-03T07:09:59.109Z,9.40
2019-05-03T07:10:59.217Z,12.70
2019-05-03T07:11:59.067Z,13.10
2019-05-03T07:12:59.060Z,13.20
2019-05-03T07:13:59.046Z,11.30
2019-05-03T07:14:59.046Z,7.70
2019-05-03T07:15:59.048Z,12.40
2019-05-03T07:16:59.019Z,12.50
2019-05-03T07:17:59.009Z,13.70
2019-05-03T07:18:59.018Z,13.40
2019-05-03T07:19:59.039Z,12.90
2019-05-03T07:20:58.998Z,10.30
2019-05-03T07:21:58.971Z,12.80
2019-05-03T07:22:58.985Z,10.90
2019-05-03T07:23:58.950Z,11.10
2019-05-03T07:24:58.929Z,10.70
2019-05-03T07:25:58.931Z,8.80
2019-05-03T07:26:59.179Z,10.20
2019-05-03T07:27:58.918Z,11.00
2019-05-03T07:28:58.887Z,13.60
2019-05-03T07:29:58.883Z,12.10
2019-05-03T07:30:58.895Z,6.90
2019-05-03T07:31:58.850Z,7.80
2019-05-03T07:32:58.835Z,13.80
2019-05-03T07:33:58.850Z,9.80
2019-05-03T07:34:58.824Z,11.20
2019-05-03T07:35:58.826Z,11.30
2019-05-03T07:36:58.805Z,9.20
2019-05-03T07:37:58.817Z,11.20
2019-05-03T07:38:58.775Z,10.60
2019-05-03T07:39:58.761Z,11.90
2019-05-03T07:40:58.778Z,15.50
2019-05-03T07:41:58.730Z,13.00
2019-05-03T07:42:58.867Z,8.90
2019-05-03T07:43:58.705Z,11.80
2019-05-03T07:44:58.698Z,6.20
2019-05-03T07:45:58.713Z,11.90
2019-05-03T07:46:58.720Z,6.00
2019-05-03T07:47:58.705Z,9.40
2019-05-03T07:48:58.674Z,9.00
2019-05-03T07:49:58.683Z,13.50
2019-05-03T07:50:58.648Z,10.50
2019-05-03T07:51:58.637Z,10.00
2019-05-03T07:52:58.629Z,7.90
2019-05-03T07:53:58.614Z,8.40
2019-05-03T07:54:58.626Z,7.60
2019-05-03T07:55:58.579Z,10.60
2019-05-03T07:56:58.609Z,13.20
2019-05-03T07:57:58.555Z,9.10
2019-05-03T07:59:03.154Z,9.00
2019-05-03T07:59:59.536Z,9.40
2019-05-03T08:01:06.291Z,8.70
2019-05-03T08:01:59.553Z,8.90
2019-05-03T08:02:58.504Z,10.00
2019-05-03T08:03:58.498Z,6.50
2019-05-03T08:04:58.487Z,8.60
2019-05-03T08:05:58.477Z,9.50
2019-05-03T08:06:58.464Z,10.60
2019-05-03T08:07:58.463Z,6.40
2019-05-03T08:08:58.446Z,10.90
2019-05-03T08:09:58.438Z,11.30
2019-05-03T08:10:58.421Z,6.80
2019-05-03T08:11:58.395Z,10.70
2019-05-03T08:12:58.411Z,6.70
2019-05-03T08:13:58.375Z,10.60
2019-05-03T08:14:58.374Z,9.40
2019-05-03T08:15:58.357Z,8.50
2019-05-03T08:16:58.368Z,8.60
2019-05-03T08:17:58.397Z,8.60
2019-05-03T08:18:58.319Z,7.70
2019-05-03T08:19:58.342Z,7.40
2019-05-03T08:20:58.302Z,5.90
2019-05-03T08:21:58.289Z,8.20
2019-05-03T08:22:58.345Z,7.40
2019-05-03T08:23:58.269Z,6.60
2019-05-03T08:24:58.274Z,11.10
2019-05-03T08:25:58.252Z,9.80
2019-05-03T08:26:58.233Z,8.00
2019-05-03T08:27:58.272Z,9.00
2019-05-03T08:28:58.253Z,8.30
2019-05-03T08:29:58.188Z,9.00
2019-05-03T08:30:58.203Z,12.20
2019-05-03T08:31:58.179Z,8.40
2019-05-03T08:32:58.170Z,6.60
2019-05-03T08:33:58.173Z,11.40
2019-05-03T08:34:58.147Z,7.80
2019-05-03T08:35:58.140Z,6.50
2019-05-03T08:36:58.127Z,7.80
2019-05-03T08:37:58.114Z,11.90
2019-05-03T08:38:58.144Z,8.30
2019-05-03T08:39:58.164Z,7.80
2019-05-03T08:40:58.080Z,8.70
2019-05-03T08:41:58.071Z,7.30
2019-05-03T08:42:58.066Z,8.40
2019-05-03T08:43:58.153Z,8.40
2019-05-03T08:44:58.026Z,7.50
2019-05-03T08:45:58.023Z,6.30
2019-05-03T08:46:58.008Z,5.80
2019-05-03T08:47:58.003Z,8.70
2019-05-03T08:48:58.026Z,8.60
2019-05-03T08:49:58.005Z,10.20
2019-05-03T08:50:58.009Z,7.40
2019-05-03T08:51:57.959Z,6.10
2019-05-03T08:52:57.953Z,8.20
2019-05-03T08:53:57.928Z,8.10
2019-05-03T08:54:57.940Z,7.50
2019-05-03T08:55:57.934Z,8.90
2019-05-03T08:56:57.906Z,7.30
2019-05-03T08:57:57.883Z,7.30
2019-05-03T08:58:57.894Z,8.80
2019-05-03T08:59:57.896Z,8.10
2019-05-03T09:00:57.846Z,9.50
2019-05-03T09:01:57.839Z,5.80
2019-05-03T09:02:57.826Z,6.60
2019-05-03T09:03:57.855Z,6.10
2019-05-03T09:04:57.830Z,7.10
2019-05-03T09:05:57.796Z,7.00
2019-05-03T09:06:57.783Z,7.30
2019-05-03T09:07:57.774Z,7.50
2019-05-03T09:08:57.783Z,6.60
2019-05-03T09:09:57.787Z,9.00
2019-05-03T09:10:57.741Z,7.90
2019-05-03T09:11:57.739Z,8.20
2019-05-03T09:12:57.719Z,6.90
2019-05-03T09:13:57.715Z,8.80
2019-05-03T09:14:57.697Z,5.90
2019-05-03T09:15:57.726Z,7.60
2019-05-03T09:16:57.684Z,7.20
2019-05-03T09:17:57.680Z,9.60
2019-05-03T09:18:57.644Z,11.50
2019-05-03T09:19:57.644Z,6.80
2019-05-03T09:20:57.643Z,9.80
2019-05-03T09:21:57.624Z,8.00
2019-05-03T09:22:57.615Z,4.70
2019-05-03T09:23:57.597Z,7.50
2019-05-03T09:24:57.584Z,11.40
2019-05-03T09:25:57.601Z,5.80
2019-05-03T09:26:57.569Z,7.50
2019-05-03T09:27:57.561Z,4.80
2019-05-03T09:28:57.534Z,5.70
2019-05-03T09:29:57.527Z,7.40
2019-05-03T09:30:57.535Z,4.60
2019-05-03T09:31:57.509Z,5.80
2019-05-03T09:32:57.520Z,6.50
2019-05-03T09:33:57.533Z,5.00
2019-05-03T09:34:57.486Z,6.90
2019-05-03T09:35:57.511Z,8.00
2019-05-03T09:36:57.449Z,5.70
2019-05-03T09:37:57.457Z,8.40
2019-05-03T09:38:57.435Z,10.50
2019-05-03T09:39:57.465Z,9.00
2019-05-03T09:40:57.410Z,7.80
2019-05-03T09:41:57.432Z,6.00
2019-05-03T09:42:57.493Z,8.90
2019-05-03T09:43:57.377Z,5.70
2019-05-03T09:44:57.385Z,7.20
2019-05-03T09:45:57.347Z,7.70
2019-05-03T09:46:57.368Z,6.50
2019-05-03T09:47:57.337Z,11.40
2019-05-03T09:49:09.962Z,5.90
2019-05-03T09:49:58.336Z,6.90
2019-05-03T09:50:57.320Z,8.20
2019-05-03T09:51:57.354Z,8.30
2019-05-03T09:52:57.319Z,13.00
2019-05-03T09:53:57.269Z,9.70
2019-05-03T09:54:57.273Z,7.10
2019-05-03T09:55:57.259Z,7.00
2019-05-03T09:56:58.564Z,6.70
2019-05-03T09:57:57.230Z,5.70
2019-05-03T09:58:57.211Z,9.90
2019-05-03T10:00:00.145Z,6.80
2019-05-03T10:00:57.206Z,6.60
2019-05-03T10:01:57.422Z,6.10
2019-05-03T10:02:57.173Z,5.60
2019-05-03T10:03:57.149Z,6.50
2019-05-03T10:04:57.163Z,9.70
2019-05-03T10:05:57.133Z,5.30
2019-05-03T10:06:57.137Z,4.80
2019-05-03T10:07:57.133Z,9.80
2019-05-03T10:08:57.100Z,7.10
2019-05-03T10:09:57.084Z,7.50
2019-05-03T10:10:57.079Z,5.00
2019-05-03T10:11:57.064Z,6.50
2019-05-03T10:12:57.084Z,4.60
2019-05-03T10:13:57.060Z,6.20
2019-05-03T10:14:57.036Z,6.90
2019-05-03T10:15:57.083Z,7.30
2019-05-03T10:16:57.009Z,6.30
2019-05-03T10:17:57.043Z,7.30
2019-05-03T10:18:56.999Z,4.00
2019-05-03T10:19:57.028Z,6.50
2019-05-03T10:20:57.052Z,5.60
2019-05-03T10:21:57.051Z,9.20
2019-05-03T10:22:56.955Z,5.70
2019-05-03T10:23:56.932Z,6.20
2019-05-03T10:24:56.951Z,8.90
2019-05-03T10:25:56.939Z,8.10
2019-05-03T10:26:56.948Z,5.60
2019-05-03T10:27:56.973Z,6.80
2019-05-03T10:28:56.890Z,7.60
2019-05-03T10:30:09.586Z,6.70
2019-05-03T10:30:57.854Z,5.40
2019-05-03T10:31:56.858Z,6.70
2019-05-03T10:32:56.861Z,4.50
2019-05-03T10:33:56.826Z,4.30
2019-05-03T10:34:56.841Z,8.10
2019-05-03T10:35:56.816Z,8.40
2019-05-03T10:36:56.807Z,7.70
2019-05-03T10:37:56.830Z,4.20
2019-05-03T10:38:56.816Z,8.80
2019-05-03T10:39:56.765Z,6.70
2019-05-03T10:40:56.752Z,5.10
2019-05-03T10:41:56.765Z,5.00
2019-05-03T10:42:56.985Z,6.40
2019-05-03T10:43:56.708Z,3.30
2019-05-03T10:44:56.849Z,4.30
2019-05-03T10:45:56.682Z,4.00
2019-05-03T10:46:56.682Z,3.50
2019-05-03T10:47:56.696Z,4.80
2019-05-03T10:48:56.665Z,4.60
2019-05-03T10:49:56.654Z,7.70
2019-05-03T10:50:56.675Z,5.60
2019-05-03T10:51:56.654Z,8.50
2019-05-03T10:52:56.634Z,5.10
2019-05-03T10:53:56.605Z,6.30
2019-05-03T10:54:56.663Z,5.70
2019-05-03T10:55:56.580Z,4.30
2019-05-03T10:56:56.576Z,6.00
2019-05-03T10:57:56.582Z,6.30
2019-05-03T10:58:56.609Z,7.50
2019-05-03T10:59:56.569Z,6.30
2019-05-03T11:00:56.825Z,9.60
2019-05-03T11:01:56.531Z,5.40
2019-05-03T11:02:56.526Z,6.40
2019-05-03T11:03:56.507Z,5.50
2019-05-03T11:04:56.488Z,7.20
2019-05-03T11:05:56.468Z,5.20
2019-05-03T11:06:56.474Z,4.90
2019-05-03T11:07:56.456Z,4.70
2019-05-03T11:08:56.467Z,6.00
2019-05-03T11:09:56.454Z,3.90
2019-05-03T11:10:56.499Z,5.20
2019-05-03T11:11:56.409Z,4.80
2019-05-03T11:12:56.401Z,8.70
2019-05-03T11:13:56.410Z,4.50
2019-05-03T11:14:56.382Z,4.40
2019-05-03T11:15:56.374Z,4.30
2019-05-03T11:16:56.366Z,5.50
2019-05-03T11:17:56.344Z,8.30
2019-05-03T11:18:56.378Z,3.80
2019-05-03T11:19:56.316Z,5.80
2019-05-03T11:20:56.325Z,4.40
2019-05-03T11:21:56.336Z,6.50
2019-05-03T11:22:56.339Z,9.40
2019-05-03T11:23:56.288Z,6.30
2019-05-03T11:24:56.276Z,6.60
2019-05-03T11:25:56.263Z,6.50
2019-05-03T11:26:56.253Z,5.00
2019-05-03T11:27:56.231Z,6.60
2019-05-03T11:29:00.387Z,5.50
2019-05-03T11:29:59.034Z,6.40
2019-05-03T11:31:01.841Z,4.50
2019-05-03T11:31:57.233Z,5.10
2019-05-03T11:32:56.176Z,6.40
2019-05-03T11:33:56.234Z,6.20
2019-05-03T11:34:56.157Z,4.20
2019-05-03T11:35:56.263Z,8.10
2019-05-03T11:36:56.122Z,5.50
2019-05-03T11:37:56.118Z,8.60
2019-05-03T11:38:56.139Z,4.40
2019-05-03T11:39:56.106Z,7.30
2019-05-03T11:40:56.199Z,7.30
2019-05-03T11:41:56.130Z,6.20
2019-05-03T11:42:56.066Z,3.40
2019-05-03T11:43:56.067Z,3.50
2019-05-03T11:44:56.071Z,9.60
2019-05-03T11:45:56.031Z,4.00
2019-05-03T11:46:56.019Z,4.60
2019-05-03T11:47:56.012Z,8.10
2019-05-03T11:48:56.039Z,4.90
2019-05-03T11:49:56.004Z,4.00
2019-05-03T11:50:55.993Z,5.30
2019-05-03T11:51:55.961Z,3.70
2019-05-03T11:52:55.961Z,5.60
2019-05-03T11:53:55.957Z,3.90
2019-05-03T11:54:55.967Z,8.80
2019-05-03T11:55:56.022Z,6.30
2019-05-03T11:56:55.908Z,5.10
2019-05-03T11:57:56.635Z,8.30
2019-05-03T11:58:55.884Z,6.10
2019-05-03T11:59:55.914Z,6.00
2019-05-03T12:01:10.775Z,5.70
2019-05-03T12:01:56.957Z,7.30
2019-05-03T12:02:55.875Z,5.10
2019-05-03T12:03:55.933Z,6.40
2019-05-03T12:04:55.851Z,6.00
2019-05-03T12:05:55.816Z,5.50
2019-05-03T12:06:55.816Z,5.30
2019-05-03T12:07:55.787Z,8.20
2019-05-03T12:08:55.935Z,6.70
2019-05-03T12:09:55.795Z,3.80
2019-05-03T12:11:01.052Z,3.30
2019-05-03T12:11:56.751Z,6.70
2019-05-03T12:12:55.845Z,5.40
2019-05-03T12:14:02.433Z,6.00
2019-05-03T12:14:56.747Z,6.40
2019-05-03T12:15:55.716Z,5.30
2019-05-03T12:17:13.111Z,5.20
2019-05-03T12:17:59.184Z,4.70
2019-05-03T12:18:56.044Z,5.80
2019-05-03T12:19:57.718Z,3.00
2019-05-03T12:20:57.378Z,6.00
2019-05-03T12:21:56.262Z,10.30
2019-05-03T12:22:56.307Z,4.70
2019-05-03T12:23:56.741Z,6.10
2019-05-03T12:24:56.355Z,4.80
2019-05-03T12:25:56.331Z,4.40
2019-05-03T12:26:55.877Z,6.10
2019-05-03T12:27:55.571Z,4.60
2019-05-03T12:28:55.558Z,5.50
2019-05-03T12:29:55.597Z,5.20
2019-05-03T12:30:55.538Z,4.90
2019-05-03T12:31:55.526Z,3.90
2019-05-03T12:32:55.518Z,5.80
2019-05-03T12:33:55.527Z,3.60
2019-05-03T12:34:55.521Z,5.20
2019-05-03T12:35:55.545Z,6.10
2019-05-03T12:36:55.477Z,3.10
2019-05-03T12:37:55.708Z,5.30
2019-05-03T12:38:55.496Z,5.00
2019-05-03T12:39:55.485Z,5.70
2019-05-03T12:40:55.440Z,5.80
2019-05-03T12:41:55.408Z,5.30
2019-05-03T12:42:55.549Z,3.40
2019-05-03T12:43:55.394Z,4.30
2019-05-03T12:44:55.412Z,4.50
2019-05-03T12:45:55.371Z,7.10
2019-05-03T12:46:55.361Z,4.40
2019-05-03T12:47:55.909Z,4.20
2019-05-03T12:48:55.343Z,4.30
2019-05-03T12:49:55.861Z,4.90
2019-05-03T12:50:55.646Z,2.70
2019-05-03T12:51:55.811Z,3.50
2019-05-03T12:52:55.591Z,2.90
2019-05-03T12:53:55.302Z,5.70
2019-05-03T12:54:55.374Z,4.60
2019-05-03T12:55:55.473Z,5.10
2019-05-03T12:56:56.087Z,3.80
2019-05-03T12:57:55.708Z,5.10
2019-05-03T12:58:55.374Z,6.40
2019-05-03T12:59:55.691Z,5.70
2019-05-03T13:00:55.809Z,5.40
2019-05-03T13:01:55.704Z,3.00
2019-05-03T13:02:55.179Z,5.00
2019-05-03T13:03:55.494Z,5.20
2019-05-03T13:04:55.441Z,5.90
2019-05-03T13:05:55.658Z,5.30
2019-05-03T13:06:55.128Z,5.20
2019-05-03T13:07:55.107Z,7.50
2019-05-03T13:08:55.152Z,5.40
2019-05-03T13:09:55.115Z,4.30
2019-05-03T13:10:55.693Z,6.00
2019-05-03T13:11:58.741Z,6.10